Time;durP1;ratioP1;P1;durP2;ratioP2;P2;SDS_P1;SDS_P2;PMS_P1;PMS_P2;Temp;Humidity;BMP_temperature;BMP_pressure;BME280_temperature;BME280_humidity;BME280_pressure;Samples;Min_cycle;Max_cycle;Signal;HPM_P1;HPM_P2
2023/03/14 00:00:39;;;;;;;11.55;2.08;;;23.20;99.90;;;;;;5107098;28;20195;-77
2023/03/14 00:03:10;;;;;;;7.00;1.80;;;23.10;99.90;;;;;;5111602;28;20704;-77
2023/03/14 00:05:45;;;;;;;9.88;2.13;;;23.00;99.90;;;;;;5107583;28;20633;-77
2023/03/14 00:08:17;;;;;;;9.10;2.30;;;22.90;99.90;;;;;;5090465;28;20198;-76
2023/03/14 00:10:51;;;;;;;7.35;2.00;;;22.80;99.90;;;;;;5096617;28;20237;-77
2023/03/14 00:13:22;;;;;;;10.48;2.38;;;22.80;99.90;;;;;;5095401;28;20191;-78
2023/03/14 00:15:53;;;;;;;8.23;1.58;;;22.70;99.90;;;;;;5093852;28;20206;-78
2023/03/14 00:18:24;;;;;;;8.27;1.65;;;22.70;99.90;;;;;;5109696;28;20190;-77
2023/03/14 00:21:04;;;;;;;4.78;1.35;;;22.70;99.90;;;;;;5092639;28;20198;-78
2023/03/14 00:23:37;;;;;;;9.73;2.10;;;22.80;99.90;;;;;;5090326;28;20207;-77
2023/03/14 00:26:10;;;;;;;9.10;1.90;;;22.90;99.90;;;;;;5101721;28;20198;-78
2023/03/14 00:28:42;;;;;;;8.15;1.90;;;22.90;99.90;;;;;;5109779;28;20219;-78
2023/03/14 00:31:14;;;;;;;6.93;1.90;;;22.90;99.90;;;;;;5101695;28;20205;-77
2023/03/14 00:33:46;;;;;;;5.60;1.92;;;23.00;99.90;;;;;;5089432;28;20191;-78
2023/03/14 00:36:20;;;;;;;8.25;2.15;;;23.00;99.90;;;;;;5093066;28;20223;-78
2023/03/14 00:38:52;;;;;;;7.15;2.05;;;23.00;99.90;;;;;;5089495;28;20204;-78
2023/03/14 00:41:25;;;;;;;11.13;1.95;;;23.10;99.90;;;;;;5100414;28;20194;-79
2023/03/14 00:43:56;;;;;;;8.63;1.90;;;23.00;99.90;;;;;;5109377;28;20205;-78
2023/03/14 00:46:27;;;;;;;12.07;2.83;;;23.00;99.90;;;;;;5109379;28;20202;-78
2023/03/14 00:48:59;;;;;;;9.93;2.22;;;23.10;99.90;;;;;;5094057;28;20195;-79
2023/03/14 00:51:32;;;;;;;15.32;2.80;;;23.00;99.90;;;;;;5096137;28;20195;-78
2023/03/14 00:54:07;;;;;;;10.98;2.40;;;23.00;99.90;;;;;;5093804;28;20707;-78
2023/03/14 00:56:38;;;;;;;14.52;2.95;;;23.10;99.90;;;;;;5098270;28;20706;-78
2023/03/14 00:59:10;;;;;;;11.70;2.80;;;23.10;99.90;;;;;;5098719;28;20203;-77
2023/03/14 01:01:43;;;;;;;14.52;2.88;;;23.10;99.90;;;;;;5099332;28;20653;-77
2023/03/14 01:04:14;;;;;;;8.50;2.20;;;23.20;99.90;;;;;;5109205;28;20263;-78
2023/03/14 01:06:47;;;;;;;11.98;2.70;;;23.10;99.90;;;;;;5103308;28;20573;-77
2023/03/14 01:09:19;;;;;;;9.55;2.28;;;23.10;99.90;;;;;;5092481;28;20195;-78
2023/03/14 01:11:50;;;;;;;12.60;2.53;;;23.10;99.90;;;;;;5111015;28;20198;-78
2023/03/14 01:14:21;;;;;;;8.18;2.08;;;23.10;99.90;;;;;;5095008;28;20694;-78
2023/03/14 01:16:52;;;;;;;9.60;2.28;;;23.10;99.90;;;;;;5099758;28;20229;-78
2023/03/14 01:19:23;;;;;;;7.53;2.20;;;23.10;99.90;;;;;;5098584;27;20293;-78
2023/03/14 01:21:56;;;;;;;10.32;2.20;;;23.10;99.90;;;;;;5101673;28;20203;-79
2023/03/14 01:24:27;;;;;;;9.45;2.33;;;23.10;99.90;;;;;;5104334;28;20703;-78
2023/03/14 01:26:58;;;;;;;10.50;2.42;;;23.10;99.90;;;;;;5112282;28;20212;-79
2023/03/14 01:29:29;;;;;;;10.27;2.45;;;23.00;99.90;;;;;;5110339;28;20238;-79
2023/03/14 01:32:03;;;;;;;11.45;2.85;;;23.10;99.90;;;;;;5092753;28;20290;-78
2023/03/14 01:34:34;;;;;;;11.65;2.38;;;23.10;99.90;;;;;;5094908;28;20206;-78
2023/03/14 01:37:07;;;;;;;13.40;2.45;;;23.10;99.90;;;;;;5094771;28;20227;-78
2023/03/14 01:39:38;;;;;;;8.00;1.90;;;23.10;99.90;;;;;;5101154;28;20270;-78
2023/03/14 01:42:10;;;;;;;11.75;2.63;;;23.10;99.90;;;;;;5092828;28;20199;-78
2023/03/14 01:44:55;;;;;;;8.65;2.03;;;23.10;99.90;;;;;;5092327;28;20233;-80
2023/03/14 01:47:26;;;;;;;10.20;2.42;;;23.20;99.90;;;;;;5107366;28;20210;-78
2023/03/14 01:50:01;;;;;;;9.35;1.90;;;23.20;99.90;;;;;;5110385;27;20653;-78
2023/03/14 01:52:42;;;;;;;9.90;1.90;;;23.30;99.90;;;;;;5112072;28;20563;-78
2023/03/14 01:55:16;;;;;;;11.10;2.10;;;23.30;99.90;;;;;;5112209;28;20230;-77
2023/03/14 01:57:50;;;;;;;8.93;2.05;;;23.40;99.90;;;;;;5111876;28;20196;-78
2023/03/14 02:00:24;;;;;;;6.95;2.10;;;23.40;99.90;;;;;;5091675;28;20194;-78
2023/03/14 02:02:58;;;;;;;10.65;2.17;;;23.40;99.90;;;;;;5091932;28;20195;-78
2023/03/14 02:05:32;;;;;;;8.18;2.00;;;23.50;99.90;;;;;;5099062;28;20588;-77
2023/03/14 02:08:08;;;;;;;11.35;2.17;;;23.60;99.90;;;;;;5105371;28;20256;-78
2023/03/14 02:10:43;;;;;;;6.75;2.20;;;23.70;99.90;;;;;;5095375;28;20190;-79
2023/03/14 02:13:15;;;;;;;10.00;2.42;;;23.70;99.90;;;;;;5098049;27;20199;-78
2023/03/14 02:15:50;;;;;;;8.68;2.30;;;23.60;99.90;;;;;;5112578;28;20701;-78
2023/03/14 02:18:21;;;;;;;6.93;2.28;;;23.60;99.90;;;;;;5098749;28;20202;-78
2023/03/14 02:20:59;;;;;;;9.85;2.40;;;23.60;99.90;;;;;;5100220;28;20203;-78
2023/03/14 02:23:41;;;;;;;8.95;2.45;;;23.60;99.90;;;;;;5107774;28;20191;-78
2023/03/14 02:26:16;;;;;;;7.07;2.03;;;23.60;99.90;;;;;;5100441;28;20205;-79
2023/03/14 02:28:49;;;;;;;9.52;2.63;;;23.70;99.90;;;;;;5103950;28;20217;-80
2023/03/14 02:31:20;;;;;;;10.98;2.60;;;23.60;99.90;;;;;;5095245;28;20203;-78
2023/03/14 02:33:52;;;;;;;9.02;2.20;;;23.50;99.90;;;;;;5096307;28;20534;-79
2023/03/14 02:36:24;;;;;;;8.25;2.08;;;23.40;99.90;;;;;;5091665;28;20724;-78
2023/03/14 02:39:00;;;;;;;8.98;2.50;;;23.40;99.90;;;;;;5099434;28;20218;-78
2023/03/14 02:41:33;;;;;;;11.23;2.20;;;23.40;99.90;;;;;;5108797;28;20687;-77
2023/03/14 02:44:06;;;;;;;9.52;2.25;;;23.40;99.90;;;;;;5092412;28;20210;-78
2023/03/14 02:46:37;;;;;;;12.63;2.60;;;23.50;99.90;;;;;;5095913;28;20650;-78
2023/03/14 02:49:13;;;;;;;9.25;2.40;;;23.40;99.90;;;;;;5094893;28;20210;-79
2023/03/14 02:51:47;;;;;;;9.35;2.47;;;23.30;99.90;;;;;;5091482;28;20195;-77
2023/03/14 02:54:18;;;;;;;7.68;2.30;;;23.30;99.90;;;;;;5095615;28;20218;-78
2023/03/14 02:56:50;;;;;;;10.75;2.20;;;23.30;99.90;;;;;;5091342;28;20234;-78
2023/03/14 02:59:25;;;;;;;11.38;2.67;;;23.20;99.90;;;;;;5098847;28;20191;-78
2023/03/14 03:01:56;;;;;;;7.03;2.03;;;23.20;99.90;;;;;;5108210;28;20190;-77
2023/03/14 03:04:28;;;;;;;8.02;2.22;;;23.20;99.90;;;;;;5099645;28;20202;-78
2023/03/14 03:07:01;;;;;;;9.45;2.42;;;23.30;99.90;;;;;;5091386;28;20218;-78
2023/03/14 03:09:32;;;;;;;9.35;2.58;;;23.40;99.90;;;;;;5107715;28;20194;-78
2023/03/14 03:12:03;;;;;;;8.73;2.80;;;23.40;99.90;;;;;;5100842;28;20630;-79
2023/03/14 03:14:37;;;;;;;6.82;2.03;;;23.40;99.90;;;;;;5107199;28;20190;-79
2023/03/14 03:17:11;;;;;;;10.60;1.92;;;23.50;99.90;;;;;;5111785;28;20279;-79
2023/03/14 03:19:42;;;;;;;9.55;2.40;;;23.40;99.90;;;;;;5110720;28;20682;-77
2023/03/14 03:22:13;;;;;;;13.73;2.92;;;23.30;99.90;;;;;;5102536;28;20643;-79
2023/03/14 03:24:44;;;;;;;7.00;2.25;;;23.20;99.90;;;;;;5100478;28;20216;-78
2023/03/14 03:27:17;;;;;;;6.38;2.10;;;23.10;99.90;;;;;;5111342;28;20203;-79
2023/03/14 03:29:51;;;;;;;7.00;1.92;;;23.00;99.90;;;;;;5100436;28;20285;-78
2023/03/14 03:32:24;;;;;;;8.13;2.10;;;23.00;99.90;;;;;;5111765;28;20199;-77
2023/03/14 03:34:55;;;;;;;7.25;2.15;;;23.00;99.90;;;;;;5099055;27;20191;-78
2023/03/14 03:37:29;;;;;;;6.10;1.70;;;23.00;99.90;;;;;;5110251;27;20601;-79
2023/03/14 03:40:00;;;;;;;7.85;2.10;;;23.00;99.90;;;;;;5095406;28;20186;-78
2023/03/14 03:42:31;;;;;;;5.78;1.83;;;22.90;99.90;;;;;;5093465;28;20199;-78
2023/03/14 03:45:08;;;;;;;8.77;1.95;;;23.00;99.90;;;;;;5106182;28;20202;-78
2023/03/14 03:47:39;;;;;;;9.10;2.30;;;23.00;99.90;;;;;;5091715;28;20198;-78
2023/03/14 03:50:11;;;;;;;5.30;1.85;;;23.10;99.90;;;;;;5106317;28;20194;-78
2023/03/14 03:52:46;;;;;;;6.63;1.70;;;23.10;99.90;;;;;;5105126;28;20579;-79
2023/03/14 03:55:17;;;;;;;4.65;1.73;;;23.10;99.90;;;;;;5101059;28;20259;-78
2023/03/14 03:57:48;;;;;;;8.15;2.00;;;23.10;99.90;;;;;;5110984;28;20580;-78
2023/03/14 04:00:21;;;;;;;5.18;1.80;;;23.10;99.90;;;;;;5097981;28;20202;-78
2023/03/14 04:02:52;;;;;;;7.32;1.88;;;23.20;99.90;;;;;;5101223;28;20199;-79
2023/03/14 04:05:26;;;;;;;6.40;1.90;;;23.20;99.90;;;;;;5102356;28;20198;-79
2023/03/14 04:07:58;;;;;;;6.10;1.80;;;23.20;99.90;;;;;;5090972;28;20244;-77
2023/03/14 04:10:29;;;;;;;4.63;1.65;;;23.20;99.90;;;;;;5103156;28;20194;-78
2023/03/14 04:13:00;;;;;;;4.85;1.80;;;23.30;99.90;;;;;;5095461;28;20199;-79
2023/03/14 04:15:33;;;;;;;9.23;2.00;;;23.30;99.90;;;;;;5093069;28;20205;-79
2023/03/14 04:18:07;;;;;;;4.72;1.80;;;23.30;99.90;;;;;;5109802;28;20213;-80
2023/03/14 04:20:39;;;;;;;5.63;1.73;;;23.30;99.90;;;;;;5097325;28;20559;-78
2023/03/14 04:23:15;;;;;;;5.45;2.00;;;23.20;99.90;;;;;;5096512;28;20195;-79
2023/03/14 04:25:47;;;;;;;4.78;1.63;;;23.30;99.90;;;;;;5108791;28;20194;-79
2023/03/14 04:28:21;;;;;;;6.50;1.77;;;23.40;99.90;;;;;;5097648;28;20227;-79
2023/03/14 04:30:57;;;;;;;7.10;1.80;;;23.20;99.90;;;;;;5106240;28;20194;-81
2023/03/14 04:33:28;;;;;;;6.07;2.08;;;23.30;99.90;;;;;;5096869;28;20199;-77
2023/03/14 04:36:00;;;;;;;7.13;1.90;;;23.30;99.90;;;;;;5102804;28;20194;-79
2023/03/14 04:38:31;;;;;;;6.30;1.65;;;23.40;99.90;;;;;;5104083;28;20789;-78
2023/03/14 04:41:06;;;;;;;5.50;2.10;;;23.40;99.90;;;;;;5110352;28;20195;-79
2023/03/14 04:43:37;;;;;;;7.57;2.22;;;23.40;99.90;;;;;;5114869;28;20201;-79
2023/03/14 04:46:11;;;;;;;8.40;1.95;;;23.40;99.90;;;;;;5106503;28;20500;-79
2023/03/14 04:48:42;;;;;;;6.00;1.77;;;23.50;99.90;;;;;;5106892;28;20569;-79
2023/03/14 04:51:13;;;;;;;6.50;2.30;;;23.60;99.90;;;;;;5111150;27;20199;-79
2023/03/14 04:53:44;;;;;;;5.15;1.63;;;23.60;99.90;;;;;;5104255;28;20192;-78
2023/03/14 04:56:18;;;;;;;9.93;2.22;;;23.70;99.90;;;;;;5109298;28;20210;-79
2023/03/14 04:58:56;;;;;;;7.57;1.80;;;23.80;99.90;;;;;;5113669;28;20194;-78
2023/03/14 05:01:34;;;;;;;8.25;2.50;;;23.90;99.90;;;;;;5112811;28;20198;-79
2023/03/14 05:04:05;;;;;;;10.43;2.33;;;24.00;99.90;;;;;;5100442;28;20203;-78
2023/03/14 05:06:36;;;;;;;9.10;2.08;;;24.10;99.90;;;;;;5114418;28;20680;-78
2023/03/14 05:09:11;;;;;;;11.35;2.80;;;24.20;99.90;;;;;;5111046;28;20203;-78
2023/03/14 05:11:42;;;;;;;9.30;2.40;;;24.30;99.90;;;;;;5094340;28;20203;-79
2023/03/14 05:14:14;;;;;;;8.70;2.30;;;24.30;99.90;;;;;;5104327;28;20191;-78
2023/03/14 05:16:47;;;;;;;8.10;2.00;;;24.40;99.90;;;;;;5110965;28;20218;-77
2023/03/14 05:19:18;;;;;;;9.88;2.85;;;24.50;99.90;;;;;;5102832;28;20201;-79
2023/03/14 05:21:50;;;;;;;8.80;2.35;;;24.50;99.90;;;;;;5093549;28;20195;-79
2023/03/14 05:24:21;;;;;;;9.45;2.30;;;24.50;99.90;;;;;;5098237;28;20198;-78
2023/03/14 05:26:52;;;;;;;10.40;2.90;;;24.50;99.90;;;;;;5093777;28;20281;-80
2023/03/14 05:29:23;;;;;;;11.40;2.80;;;24.50;99.90;;;;;;5113328;27;20270;-79
2023/03/14 05:31:56;;;;;;;11.80;2.33;;;24.50;99.90;;;;;;5112562;28;20206;-79
2023/03/14 05:34:27;;;;;;;10.52;2.88;;;24.50;99.90;;;;;;5113445;27;20194;-79
2023/03/14 05:36:58;;;;;;;10.20;2.80;;;24.60;99.90;;;;;;5107675;28;20621;-80
2023/03/14 05:39:29;;;;;;;14.50;3.08;;;24.60;99.90;;;;;;5093200;28;20685;-80
2023/03/14 05:42:01;;;;;;;9.82;2.47;;;24.60;99.90;;;;;;5093032;28;20196;-80
2023/03/14 05:44:32;;;;;;;11.05;2.70;;;24.60;99.90;;;;;;5097572;28;21605;-80
2023/03/14 05:47:05;;;;;;;10.77;2.80;;;24.60;99.90;;;;;;5094215;28;20529;-79
2023/03/14 05:49:36;;;;;;;8.10;2.42;;;24.50;99.90;;;;;;5092030;28;20210;-78
2023/03/14 05:52:09;;;;;;;8.63;2.67;;;24.60;99.90;;;;;;5101832;27;20199;-79
2023/03/14 05:54:40;;;;;;;7.47;2.20;;;24.60;99.90;;;;;;5106514;28;20688;-78
2023/03/14 05:57:11;;;;;;;11.88;2.63;;;24.60;99.90;;;;;;5096771;28;20339;-78
2023/03/14 05:59:42;;;;;;;9.15;2.30;;;24.60;99.90;;;;;;5092068;28;20230;-79
2023/03/14 06:02:15;;;;;;;10.18;2.55;;;24.60;99.90;;;;;;5095715;28;20199;-80
2023/03/14 06:04:46;;;;;;;11.82;2.60;;;24.70;99.90;;;;;;5108258;28;20195;-77
2023/03/14 06:07:17;;;;;;;13.65;3.10;;;24.70;99.90;;;;;;5113420;28;20210;-78
2023/03/14 06:09:48;;;;;;;7.65;2.60;;;24.90;99.90;;;;;;5113515;28;20661;-80
2023/03/14 06:12:19;;;;;;;11.15;2.58;;;24.90;99.90;;;;;;5095346;28;20202;-79
2023/03/14 06:14:51;;;;;;;8.93;2.03;;;25.10;99.90;;;;;;5110222;28;20558;-77
2023/03/14 06:17:24;;;;;;;8.43;2.22;;;25.20;99.90;;;;;;5102552;28;20600;-78
2023/03/14 06:19:55;;;;;;;8.38;2.08;;;25.10;99.90;;;;;;5095383;27;20195;-78
2023/03/14 06:22:26;;;;;;;10.45;2.10;;;25.10;99.90;;;;;;5104058;28;20205;-78
2023/03/14 06:24:57;;;;;;;10.40;2.42;;;25.10;99.90;;;;;;5110664;28;20195;-77
2023/03/14 06:27:28;;;;;;;8.05;2.40;;;25.10;99.90;;;;;;5102609;28;20573;-78
2023/03/14 06:29:59;;;;;;;12.18;2.70;;;24.90;99.90;;;;;;5106749;27;20562;-77
2023/03/14 06:32:32;;;;;;;9.82;2.42;;;24.90;99.90;;;;;;5092277;28;20206;-79
2023/03/14 06:35:03;;;;;;;11.00;2.65;;;24.90;99.90;;;;;;5102681;28;20292;-77
2023/03/14 06:37:35;;;;;;;9.05;2.35;;;25.10;99.90;;;;;;5092732;28;20736;-77
2023/03/14 06:40:07;;;;;;;10.75;2.90;;;25.10;99.90;;;;;;5103584;28;20206;-78
2023/03/14 06:42:38;;;;;;;12.45;2.95;;;25.40;99.90;;;;;;5095693;28;20199;-78
2023/03/14 06:45:10;;;;;;;12.45;3.13;;;25.70;99.90;;;;;;5092091;28;20199;-77
2023/03/14 06:47:43;;;;;;;12.48;2.80;;;26.20;99.90;;;;;;5097990;28;20205;-78
2023/03/14 06:50:15;;;;;;;10.40;2.60;;;26.60;99.90;;;;;;5102015;27;20198;-78
2023/03/14 06:52:47;;;;;;;12.73;2.70;;;27.00;99.90;;;;;;5091482;28;20223;-78
2023/03/14 06:55:19;;;;;;;10.65;2.65;;;27.20;99.90;;;;;;5091925;28;20682;-78
2023/03/14 06:57:50;;;;;;;9.25;2.22;;;26.80;99.90;;;;;;5099962;28;20223;-78
2023/03/14 07:00:21;;;;;;;10.05;2.40;;;26.70;99.90;;;;;;5108934;28;20201;-78
2023/03/14 07:02:54;;;;;;;10.15;2.33;;;26.40;99.90;;;;;;5098450;28;20200;-78
2023/03/14 07:05:25;;;;;;;8.27;2.28;;;26.20;99.90;;;;;;5106384;28;20202;-77
2023/03/14 07:07:57;;;;;;;9.20;2.45;;;26.00;99.90;;;;;;5091330;28;20206;-78
2023/03/14 07:10:28;;;;;;;10.48;2.45;;;25.80;99.90;;;;;;5095626;28;20202;-78
2023/03/14 07:12:59;;;;;;;10.38;2.40;;;25.70;99.90;;;;;;5099532;28;20568;-78
2023/03/14 07:15:30;;;;;;;10.48;2.63;;;25.50;99.90;;;;;;5109882;28;20202;-78
2023/03/14 07:18:03;;;;;;;9.85;1.80;;;25.40;99.90;;;;;;5111491;28;20233;-80
2023/03/14 07:20:34;;;;;;;5.60;1.67;;;25.20;99.90;;;;;;5091458;28;20287;-80
2023/03/14 07:23:07;;;;;;;5.13;1.55;;;24.90;99.90;;;;;;5093569;28;20186;-77
2023/03/14 07:25:38;;;;;;;5.32;1.50;;;24.60;99.90;;;;;;5105340;28;20187;-77
2023/03/14 07:28:11;;;;;;;5.60;1.52;;;24.30;99.90;;;;;;5096924;28;20696;-78
2023/03/14 07:30:42;;;;;;;7.10;1.67;;;24.10;99.90;;;;;;5110195;28;20195;-78
2023/03/14 07:33:15;;;;;;;6.05;1.50;;;24.00;99.90;;;;;;5107625;28;20253;-78
2023/03/14 07:35:46;;;;;;;3.40;1.10;;;23.90;99.90;;;;;;5097565;28;20194;-77
2023/03/14 07:38:18;;;;;;;5.60;1.48;;;23.80;99.90;;;;;;5109965;28;20233;-77
2023/03/14 07:40:50;;;;;;;4.82;1.48;;;23.70;99.90;;;;;;5096389;28;20197;-77
2023/03/14 07:43:27;;;;;;;3.20;1.05;;;23.60;99.90;;;;;;5091226;28;20693;-77
2023/03/14 07:45:58;;;;;;;6.25;1.38;;;23.40;99.90;;;;;;5091708;28;20191;-76
2023/03/14 07:48:31;;;;;;;4.47;1.38;;;23.40;99.90;;;;;;5090723;28;20203;-77
2023/03/14 07:51:02;;;;;;;3.80;1.05;;;23.30;99.90;;;;;;5098685;28;20195;-77
2023/03/14 07:53:33;;;;;;;5.20;1.20;;;23.30;99.90;;;;;;5106600;28;20436;-77
2023/03/14 07:56:05;;;;;;;4.25;1.17;;;23.30;99.90;;;;;;5099767;28;20198;-77
2023/03/14 07:58:36;;;;;;;6.28;1.63;;;23.20;99.90;;;;;;5108617;28;20218;-77
2023/03/14 08:01:08;;;;;;;5.93;2.20;;;23.10;99.90;;;;;;5097470;28;20300;-77
2023/03/14 08:03:41;;;;;;;7.32;2.22;;;23.10;99.90;;;;;;5109090;28;20199;-80
2023/03/14 08:06:12;;;;;;;5.40;2.08;;;23.10;99.90;;;;;;5090929;28;20206;-79
2023/03/14 08:08:43;;;;;;;6.18;2.10;;;23.10;99.90;;;;;;5104838;28;20273;-79
2023/03/14 08:11:17;;;;;;;8.85;3.10;;;23.10;99.90;;;;;;5099439;28;20209;-79
2023/03/14 08:13:49;;;;;;;9.55;4.03;;;23.10;99.90;;;;;;5104921;28;20226;-78
2023/03/14 08:16:20;;;;;;;8.63;2.70;;;23.10;99.90;;;;;;5114157;28;20199;-79
2023/03/14 08:18:54;;;;;;;7.50;2.63;;;23.20;99.90;;;;;;5111415;28;20225;-78
2023/03/14 08:21:25;;;;;;;7.80;2.42;;;23.20;99.90;;;;;;5100385;28;20609;-80
2023/03/14 08:23:56;;;;;;;5.15;2.20;;;23.10;99.90;;;;;;5113794;28;20226;-79
2023/03/14 08:26:30;;;;;;;5.15;2.13;;;23.20;99.90;;;;;;5096563;28;20198;-78
2023/03/14 08:29:01;;;;;;;7.03;2.45;;;23.20;99.90;;;;;;5104802;28;20223;-79
2023/03/14 08:31:32;;;;;;;7.10;2.50;;;23.20;99.90;;;;;;5115062;28;20201;-79
2023/03/14 08:34:06;;;;;;;7.28;2.20;;;23.20;99.90;;;;;;5112541;28;20223;-79
2023/03/14 08:36:37;;;;;;;12.35;4.18;;;23.20;99.90;;;;;;5098018;28;20195;-79
2023/03/14 08:39:09;;;;;;;10.77;4.00;;;23.10;99.90;;;;;;5104178;28;20237;-79
2023/03/14 08:41:41;;;;;;;13.18;4.53;;;23.10;99.90;;;;;;5098961;28;20677;-79
2023/03/14 08:44:13;;;;;;;7.05;3.50;;;23.10;99.90;;;;;;5103289;28;20686;-79
2023/03/14 08:46:44;;;;;;;9.85;3.60;;;23.10;99.90;;;;;;5103141;28;20565;-78
2023/03/14 08:49:17;;;;;;;6.70;2.50;;;23.10;99.90;;;;;;5098967;28;20206;-79
2023/03/14 08:51:49;;;;;;;7.57;2.60;;;23.00;99.90;;;;;;5102121;28;20194;-78
2023/03/14 08:54:20;;;;;;;9.32;3.10;;;23.00;99.90;;;;;;5111688;28;20668;-79
2023/03/14 08:56:51;;;;;;;8.23;3.60;;;23.10;99.90;;;;;;5105516;28;20199;-78
2023/03/14 08:59:23;;;;;;;8.32;4.13;;;23.10;99.90;;;;;;5095470;28;20230;-79
2023/03/14 09:01:54;;;;;;;8.15;3.67;;;23.10;99.90;;;;;;5107180;28;20198;-77
2023/03/14 09:04:27;;;;;;;7.20;3.00;;;23.10;99.90;;;;;;5109287;28;20195;-79
2023/03/14 09:07:03;;;;;;;5.45;2.65;;;23.10;99.90;;;;;;5109851;28;20199;-79
2023/03/14 09:09:34;;;;;;;8.70;2.90;;;23.10;99.90;;;;;;5112278;28;20195;-79
2023/03/14 09:12:05;;;;;;;9.07;3.05;;;23.10;99.90;;;;;;5117724;28;20596;-78
2023/03/14 09:14:37;;;;;;;7.28;3.08;;;23.10;99.90;;;;;;5103664;28;20205;-77
2023/03/14 09:17:09;;;;;;;5.55;2.85;;;23.10;99.90;;;;;;5114412;28;20645;-78
2023/03/14 09:19:44;;;;;;;7.72;2.63;;;23.10;99.90;;;;;;5108980;28;20199;-78
2023/03/14 09:22:16;;;;;;;4.80;2.65;;;23.10;99.90;;;;;;5104441;28;20209;-78
2023/03/14 09:24:48;;;;;;;5.50;2.90;;;23.00;99.90;;;;;;5117858;28;20688;-78
2023/03/14 09:27:25;;;;;;;8.57;2.20;;;23.00;99.90;;;;;;5106634;28;20205;-76
2023/03/14 09:29:57;;;;;;;6.05;2.30;;;23.00;99.90;;;;;;5118162;28;20218;-78
2023/03/14 09:32:32;;;;;;;5.05;2.38;;;22.90;99.90;;;;;;5111277;28;20224;-78
2023/03/14 09:35:12;;;;;;;5.30;2.10;;;23.00;99.90;;;;;;5104946;28;20673;-77
2023/03/14 09:37:51;;;;;;;4.97;2.03;;;22.90;99.90;;;;;;5116273;28;20597;-78
2023/03/14 09:40:26;;;;;;;5.65;2.35;;;22.90;99.90;;;;;;5115317;27;20174;-79
2023/03/14 09:42:58;;;;;;;5.75;2.13;;;23.00;99.90;;;;;;5115484;28;20193;-78
2023/03/14 09:45:36;;;;;;;3.97;2.15;;;23.00;99.90;;;;;;5121266;28;20226;-78
2023/03/14 09:48:09;;;;;;;5.68;2.28;;;23.00;99.90;;;;;;5108287;28;20198;-78
2023/03/14 09:50:45;;;;;;;7.32;2.25;;;23.00;99.90;;;;;;5102359;28;20196;-77
2023/03/14 09:53:20;;;;;;;7.07;2.08;;;23.00;99.90;;;;;;5098891;28;20205;-76
2023/03/14 09:55:53;;;;;;;7.47;2.42;;;23.00;99.90;;;;;;5104886;28;20596;-76
2023/03/14 09:58:25;;;;;;;7.63;2.75;;;23.00;99.90;;;;;;5102535;28;20222;-77
2023/03/14 10:00:59;;;;;;;5.93;2.10;;;23.00;99.90;;;;;;5099435;27;20206;-78
2023/03/14 10:03:37;;;;;;;9.10;2.13;;;23.00;99.90;;;;;;5100662;28;20198;-76
2023/03/14 10:06:14;;;;;;;9.15;2.35;;;23.00;99.90;;;;;;5113623;28;20209;-78
2023/03/14 10:08:46;;;;;;;7.13;1.98;;;23.00;99.90;;;;;;5110942;28;20199;-78
2023/03/14 10:11:19;;;;;;;4.97;1.90;;;23.00;99.90;;;;;;5114438;28;20205;-78
2023/03/14 10:14:06;;;;;;;7.03;2.40;;;23.00;99.90;;;;;;5112674;28;20202;-78
2023/03/14 10:16:38;;;;;;;8.00;2.50;;;23.00;99.90;;;;;;5100697;28;20197;-77
2023/03/14 10:19:12;;;;;;;9.68;2.80;;;23.00;99.90;;;;;;5094443;28;20214;-77
2023/03/14 10:21:46;;;;;;;10.20;3.10;;;23.00;99.90;;;;;;5110065;28;20211;-78
2023/03/14 10:24:25;;;;;;;8.43;2.65;;;23.00;99.90;;;;;;5113608;28;20198;-77
2023/03/14 10:27:01;;;;;;;7.63;3.00;;;23.00;99.90;;;;;;5099576;28;20678;-78
2023/03/14 10:29:34;;;;;;;5.45;2.28;;;22.90;99.90;;;;;;5093823;28;20227;-77
2023/03/14 10:32:07;;;;;;;8.07;2.58;;;22.90;99.90;;;;;;5108238;28;20457;-76
2023/03/14 10:34:39;;;;;;;6.75;2.22;;;23.00;99.90;;;;;;5100315;28;20682;-77
2023/03/14 10:37:25;;;;;;;5.97;2.58;;;23.00;99.90;;;;;;5106274;28;20568;-77
2023/03/14 10:39:57;;;;;;;6.72;2.40;;;23.00;99.90;;;;;;5110728;28;20235;-76
2023/03/14 10:42:31;;;;;;;5.10;2.20;;;23.00;99.90;;;;;;5112279;28;20210;-76
2023/03/14 10:45:04;;;;;;;6.32;2.22;;;22.90;99.90;;;;;;5096250;28;20808;-75
2023/03/14 10:47:50;;;;;;;7.57;2.60;;;23.00;99.90;;;;;;5105586;28;20198;-76
2023/03/14 10:50:29;;;;;;;6.35;2.25;;;23.00;99.90;;;;;;5109277;28;20204;-74
2023/03/14 10:53:07;;;;;;;5.32;2.08;;;23.00;99.90;;;;;;5097394;28;20198;-75
2023/03/14 10:55:48;;;;;;;6.00;2.10;;;23.00;99.90;;;;;;5102407;28;20194;-76
2023/03/14 10:58:27;;;;;;;6.05;2.53;;;23.00;99.90;;;;;;5108558;28;20228;-76
2023/03/14 11:01:28;;;;;;;6.32;2.30;;;22.90;99.90;;;;;;5109397;28;20195;-76
2023/03/14 11:04:03;;;;;;;6.07;2.28;;;22.90;99.90;;;;;;5107951;28;20195;-76
2023/03/14 11:06:43;;;;;;;6.95;2.08;;;22.80;99.90;;;;;;5103932;28;20202;-76
2023/03/14 11:09:24;;;;;;;7.60;2.50;;;22.90;99.90;;;;;;5112184;28;20194;-78
2023/03/14 11:11:55;;;;;;;7.97;2.85;;;22.90;99.90;;;;;;5092293;28;20195;-77
2023/03/14 11:14:36;;;;;;;6.95;2.55;;;22.80;99.90;;;;;;5101975;28;20665;-77
2023/03/14 11:17:14;;;;;;;8.27;2.28;;;22.80;99.90;;;;;;5096268;28;20207;-75
2023/03/14 11:20:08;;;;;;;7.50;2.47;;;22.90;99.90;;;;;;5092782;28;20562;-76
2023/03/14 11:22:47;;;;;;;8.80;2.95;;;22.90;99.90;;;;;;5091410;28;20205;-77
2023/03/14 11:25:27;;;;;;;10.20;2.78;;;22.80;99.90;;;;;;5099714;28;20282;-77
2023/03/14 11:28:12;;;;;;;7.50;2.60;;;22.70;99.90;;;;;;5110477;28;20222;-76
2023/03/14 11:31:01;;;;;;;5.93;2.42;;;22.70;99.90;;;;;;5111983;28;20229;-75
2023/03/14 11:33:40;;;;;;;6.60;2.70;;;22.70;99.90;;;;;;5120830;28;20192;-78
2023/03/14 11:36:19;;;;;;;7.10;2.45;;;22.70;99.90;;;;;;5105551;28;20206;-77
2023/03/14 11:38:55;;;;;;;6.30;2.55;;;22.80;99.90;;;;;;5114723;28;20226;-75
2023/03/14 11:41:37;;;;;;;6.72;2.35;;;22.70;99.90;;;;;;5110886;28;20361;-76
2023/03/14 11:44:22;;;;;;;7.82;2.60;;;22.70;99.90;;;;;;5112338;28;20277;-77
2023/03/14 11:46:57;;;;;;;5.75;2.38;;;22.70;99.90;;;;;;5096019;28;20204;-76
2023/03/14 11:49:39;;;;;;;7.50;2.63;;;22.80;99.90;;;;;;5106939;28;20233;-75
2023/03/14 11:52:22;;;;;;;6.88;2.30;;;22.80;99.90;;;;;;5102837;28;20201;-76
2023/03/14 11:55:00;;;;;;;5.00;2.40;;;22.70;99.90;;;;;;5117235;28;20203;-75
2023/03/14 11:57:33;;;;;;;6.70;2.50;;;22.80;99.90;;;;;;5112506;28;20203;-75
2023/03/14 12:00:16;;;;;;;6.55;2.33;;;22.70;99.90;;;;;;5098856;28;20227;-77
2023/03/14 12:02:54;;;;;;;5.72;2.28;;;22.70;99.90;;;;;;5104927;28;20206;-77
2023/03/14 12:05:35;;;;;;;7.88;2.50;;;22.70;99.90;;;;;;5116839;28;20190;-76
2023/03/14 12:08:43;;;;;;;5.10;2.17;;;22.70;99.90;;;;;;5103097;28;20681;-75
2023/03/14 12:11:25;;;;;;;7.10;2.65;;;22.80;99.90;;;;;;5087988;28;20654;-75
2023/03/14 12:14:00;;;;;;;8.85;2.45;;;22.80;99.90;;;;;;5102971;28;20202;-76
2023/03/14 12:16:41;;;;;;;6.85;2.30;;;22.80;99.90;;;;;;5110142;28;20190;-76
2023/03/14 12:19:33;;;;;;;7.90;2.75;;;22.80;99.90;;;;;;5098760;28;20705;-74
2023/03/14 12:22:24;;;;;;;5.68;2.10;;;22.80;99.90;;;;;;5089781;28;20194;-76
2023/03/14 12:24:59;;;;;;;7.85;2.20;;;22.80;99.90;;;;;;5090387;28;20600;-76
2023/03/14 12:27:52;;;;;;;6.00;2.08;;;22.80;99.90;;;;;;5094467;28;20581;-77
2023/03/14 12:30:32;;;;;;;8.38;2.70;;;22.80;99.90;;;;;;5094821;28;20223;-76
2023/03/14 12:33:23;;;;;;;7.68;2.60;;;22.80;99.90;;;;;;5105547;28;20258;-76
2023/03/14 12:35:55;;;;;;;7.97;2.58;;;22.70;99.90;;;;;;5108657;28;20677;-75
2023/03/14 12:38:32;;;;;;;6.05;2.38;;;22.80;99.90;;;;;;5106668;28;20209;-77
2023/03/14 12:41:14;;;;;;;7.70;2.50;;;22.80;99.90;;;;;;5091412;28;20199;-75
2023/03/14 12:43:46;;;;;;;5.82;2.47;;;22.80;99.90;;;;;;5096639;28;20203;-77
2023/03/14 12:46:25;;;;;;;7.97;2.20;;;22.80;99.90;;;;;;5093318;28;20192;-77
2023/03/14 12:49:07;;;;;;;8.50;2.38;;;22.80;99.90;;;;;;5093856;28;20207;-77
2023/03/14 12:51:40;;;;;;;6.65;2.33;;;22.80;99.90;;;;;;5100795;28;20195;-77
2023/03/14 12:54:33;;;;;;;5.43;2.17;;;22.70;99.90;;;;;;5105594;28;20195;-76
2023/03/14 12:57:30;;;;;;;7.00;2.75;;;22.70;99.90;;;;;;5103726;28;20195;-75
2023/03/14 13:00:04;;;;;;;6.43;2.08;;;22.70;99.90;;;;;;5080063;28;20235;-76
2023/03/14 13:02:44;;;;;;;6.65;2.20;;;22.70;99.90;;;;;;5107096;28;20253;-77
2023/03/14 13:05:19;;;;;;;6.38;2.38;;;22.70;99.90;;;;;;5095040;28;20199;-76
2023/03/14 13:08:11;;;;;;;6.45;2.08;;;22.70;99.90;;;;;;5110967;28;20202;-77
2023/03/14 13:10:51;;;;;;;6.70;2.22;;;22.70;99.90;;;;;;5105815;28;20206;-77
2023/03/14 13:16:19;;;;;;;7.70;2.17;;;22.60;99.90;;;;;;5106383;28;20195;-76
2023/03/14 13:19:01;;;;;;;6.60;2.10;;;22.50;99.90;;;;;;5115812;28;20228;-77
2023/03/14 13:21:39;;;;;;;6.70;2.15;;;22.50;99.90;;;;;;5105766;28;20199;-76
2023/03/14 13:24:23;;;;;;;5.30;1.83;;;22.50;99.90;;;;;;5098006;28;20203;-76